Latest Weather Observations for Inverell RS

IDN60801

Issued at 11:35 am EDT Sunday 23 November 2014 (issued every 30 minutes, with the page automatically refreshed every 10 minutes)

About weather observations | Map of weather stations | Latest weather observations for NSW | Other Formats
Station Details ID: 056018 Name: INVERELL RESEARCH CENTRE Lat: -29.78 Lon: 151.08 Height: 664.0 m
Data from the previous 72 hours. | See also: Recent months at Inverell RS
Date/Time
EDT
Temp
°C
App
Temp
°C
Dew
Point
Rel
Hum
%
Delta-T
°C
Wind Press
QNH
hPa
Press
MSL
hPa
Rain
since 9 am
mm
Dir
 
Spd
km/h
Gust
km/h
Spd
kts
Gust
kts
23/11:30am 34.2 33.2 16.7 35 11.4 N 17 26 9 14 1018.1 - 0.0
23/11:00am 32.7 31.3 16.6 38 10.4 NNW 19 28 10 15 1018.6 - 0.0
23/10:30am 32.5 32.1 18.1 42 9.5 NNW 17 28 9 15 1018.8 - 0.0
23/10:00am 31.7 31.2 17.8 43 9.1 N 17 26 9 14 1018.7 - 0.0
23/09:30am 29.7 29.1 18.5 51 7.4 N 19 28 10 15 1018.8 - 0.0
23/09:00am 29.3 28.8 19.0 53 6.8 N 20 28 11 15 1018.7 1016.3 0.0
23/08:30am 28.5 27.5 18.8 55 6.4 N 22 32 12 17 1018.5 - 0.0
23/08:00am 27.3 26.7 18.8 59 5.6 N 20 30 11 16 1018.4 - 0.0
23/07:30am 26.4 27.9 18.9 63 4.9 NNE 9 19 5 10 1018.1 - 0.0
23/07:00am 25.2 26.9 18.6 67 4.3 NE 7 9 4 5 1017.8 - 0.0
23/06:30am 23.5 25.0 18.1 71 3.5 NE 7 9 4 5 1017.4 - 0.0
23/06:00am 23.2 24.7 18.1 73 3.3 NNE 7 9 4 5 1017.1 1014.6 0.0
23/05:30am 23.1 24.6 17.6 71 3.5 N 6 7 3 4 1016.8 - 0.0
23/05:00am 24.4 25.5 17.9 67 4.2 N 9 15 5 8 1016.4 - 0.0
23/04:30am 22.5 24.9 16.9 70 3.5 CALM 0 6 0 3 1016.3 - 0.0
23/04:00am 23.5 24.6 17.2 67 4.0 N 7 9 4 5 1015.9 - 0.0
23/03:30am 23.8 24.8 16.8 65 4.4 N 7 9 4 5 1015.8 - 0.0
23/03:00am 24.5 25.6 17.1 63 4.7 N 7 9 4 5 1015.4 1012.9 0.0
23/02:30am 24.3 24.9 15.8 59 5.3 NNE 7 9 4 5 1015.4 - 0.0
23/02:00am 24.3 24.7 15.2 57 5.6 N 7 7 4 4 1015.5 - 0.0
23/01:30am 24.6 25.2 14.2 52 6.3 NNE 4 6 2 3 1015.8 - 0.0
23/01:00am 24.8 24.3 12.5 46 7.3 NNW 7 9 4 5 1016.0 - 0.0
23/12:30am 25.5 25.5 11.2 40 8.3 NE 2 9 1 5 1015.9 - 0.0
23/12:00am 25.3 23.3 10.3 38 8.6 SE 11 15 6 8 1015.9 1013.4 0.0
 
Date/Time
EDT
Temp
°C
App
Temp
°C
Dew
Point
Rel
Hum
%
Delta-T
°C
Wind Press
QNH
hPa
Press
MSL
hPa
Rain
since 9 am
mm
Dir
 
Spd
km/h
Gust
km/h
Spd
kts
Gust
kts
22/11:30pm 26.0 24.4 8.9 34 9.6 SSE 7 11 4 6 1015.6 - 0.0
22/11:00pm 26.9 26.6 8.5 31 10.3 CALM 0 6 0 3 1015.3 - 0.0
22/10:30pm 27.7 27.2 9.5 32 10.4 NNW 2 6 1 3 1015.5 - 0.0
22/10:00pm 28.5 27.4 10.5 32 10.5 NW 7 11 4 6 1015.3 - 0.0
22/09:30pm 30.3 27.5 7.1 23 12.9 WNW 11 13 6 7 1014.9 - 0.0
22/09:00pm 29.6 27.0 7.9 25 12.2 NW 11 13 6 7 1014.7 1012.2 0.0
22/08:30pm 30.2 27.6 7.8 24 12.6 NW 11 15 6 8 1014.3 - 0.0
22/08:00pm 30.9 28.7 7.9 23 13.0 NW 9 13 5 7 1013.9 - 0.0
22/07:30pm 31.8 29.6 7.8 22 13.6 NW 9 11 5 6 1013.6 - 0.0
22/07:00pm 34.0 31.8 7.8 20 15.0 NW 9 15 5 8 1013.2 - 0.0
22/06:30pm 35.6 32.7 6.7 17 16.4 NW 11 17 6 9 1012.9 - 0.0
22/06:00pm 35.7 32.2 5.6 15 16.8 NW 13 17 7 9 1012.7 1010.1 0.0
22/05:30pm 35.2 32.5 7.4 18 15.9 NW 11 17 6 9 1012.6 - 0.0
22/05:00pm 36.0 32.2 5.9 15 16.9 NW 15 20 8 11 1012.7 - 0.0
22/04:30pm 36.0 34.3 7.5 17 16.4 NNW 6 11 3 6 1012.8 - 0.0
22/04:00pm 36.0 32.0 6.5 16 16.7 NNW 17 26 9 14 1013.0 - 0.0
22/03:30pm 36.1 33.6 8.0 18 16.3 N 11 19 6 10 1013.2 - 0.0
22/03:00pm 37.1 34.6 8.1 17 16.9 WNW 11 28 6 15 1013.6 1011.0 0.0
22/02:30pm 35.3 32.3 9.1 20 15.4 WNW 15 28 8 15 1013.8 - 0.0
22/02:00pm 36.2 32.8 9.3 19 15.9 NNW 17 28 9 15 1014.2 - 0.0
22/01:30pm 35.6 31.8 7.6 18 16.1 NW 17 30 9 16 1014.6 - 0.0
22/01:00pm 34.6 32.8 10.8 23 14.3 NNW 11 30 6 16 1015.0 - 0.0
22/12:30pm 34.9 32.1 11.5 24 14.2 N 17 32 9 17 1015.5 - 0.0
22/12:00pm 33.6 31.3 14.0 30 12.3 N 19 30 10 16 1015.9 1013.4 0.0
22/11:30am 33.3 32.8 15.9 35 11.2 N 13 20 7 11 1016.3 - 0.0
22/11:00am 31.0 30.5 16.0 40 9.6 N 13 24 7 13 1016.6 - 0.0
22/10:30am 31.1 31.2 17.5 44 8.9 NNW 13 24 7 13 1016.8 - 0.0
22/10:00am 29.3 28.5 17.1 47 7.9 N 17 28 9 15 1016.9 - 0.0
22/09:30am 28.1 28.1 18.0 54 6.6 N 15 24 8 13 1017.0 - 0.0
22/09:00am 27.2 26.6 17.6 55 6.2 N 17 26 9 14 1017.0 1014.6 0.0
22/08:30am 26.1 25.3 17.2 58 5.7 N 17 24 9 13 1016.9 - 0.0
22/08:00am 25.4 25.3 16.9 59 5.4 N 13 22 7 12 1016.8 - 0.0
22/07:30am 24.0 24.6 16.9 64 4.5 NNE 9 11 5 6 1016.5 - 0.0
22/07:00am 23.1 24.5 16.4 66 4.2 NE 4 7 2 4 1016.2 - 0.0
22/06:30am 20.1 21.8 15.3 74 2.9 CALM 0 0 0 0 1015.9 - 0.0
22/06:00am 19.6 20.9 15.1 75 2.7 ESE 2 7 1 4 1015.2 1012.7 0.0
22/05:30am 19.5 21.1 15.9 80 2.2 N 2 6 1 3 1014.8 - 0.0
22/05:00am 20.7 21.5 15.8 73 3.0 N 6 7 3 4 1014.5 - 0.0
22/04:30am 20.8 22.5 16.1 74 2.9 N 2 7 1 4 1014.3 - 0.0
22/04:00am 20.7 22.5 15.6 72 3.1 CALM 0 0 0 0 1014.3 - 0.0
22/03:30am 20.9 22.6 15.3 70 3.4 CALM 0 0 0 0 1014.1 - 0.0
22/03:00am 21.2 22.5 15.1 68 3.7 N 2 7 1 4 1014.1 1011.4 0.0
22/02:30am 21.7 21.7 15.3 67 3.9 NNW 9 11 5 6 1014.1 - 0.0
22/02:00am 22.9 22.6 14.5 59 5.1 N 9 11 5 6 1014.3 - 0.0
22/01:30am 23.9 22.9 14.7 56 5.6 N 13 17 7 9 1014.6 - 0.0
22/01:00am 24.0 23.5 13.9 53 6.1 N 9 11 5 6 1014.8 - 0.0
22/12:30am 25.6 24.2 13.3 46 7.4 NNW 13 19 7 10 1014.7 - 0.0
22/12:00am 24.0 23.8 12.9 50 6.6 NNE 6 9 3 5 1014.8 1012.3 0.0
 
Date/Time
EDT
Temp
°C
App
Temp
°C
Dew
Point
Rel
Hum
%
Delta-T
°C
Wind Press
QNH
hPa
Press
MSL
hPa
Rain
since 9 am
mm
Dir
 
Spd
km/h
Gust
km/h
Spd
kts
Gust
kts
21/11:30pm 23.7 23.3 12.9 50 6.4 WNW 7 9 4 5 1014.5 - 0.0
21/11:00pm 25.5 24.5 12.3 43 7.8 NW 9 9 5 5 1013.9 - 0.0
21/10:30pm 25.8 26.5 12.3 43 8.0 CALM 0 0 0 0 1013.5 - 0.0
21/10:00pm 26.9 26.6 12.7 41 8.5 W 6 9 3 5 1013.2 - 0.0
21/09:30pm 28.0 27.1 12.5 38 9.3 WNW 9 11 5 6 1013.0 - 0.0
21/09:00pm 28.3 27.2 12.1 36 9.7 NW 9 11 5 6 1012.5 1009.9 0.0
21/08:30pm 28.6 27.5 12.0 35 9.9 NW 9 13 5 7 1012.2 - 0.0
21/08:00pm 28.4 27.3 12.0 36 9.8 NW 9 11 5 6 1012.0 - 0.0
21/07:30pm 29.5 28.5 12.4 35 10.3 NNW 9 13 5 7 1011.8 - 0.0
21/07:00pm 30.6 28.7 11.8 31 11.3 N 13 20 7 11 1011.6 - 0.0
21/06:30pm 32.4 29.6 11.5 27 12.6 NNW 17 26 9 14 1011.2 - 0.0
21/06:00pm 32.3 28.6 11.5 28 12.5 NNW 22 35 12 19 1011.1 1008.5 0.0
21/05:30pm 32.7 29.9 11.2 26 12.9 NNW 17 26 9 14 1011.0 - 0.0
21/05:00pm 33.5 30.1 11.3 25 13.4 NW 20 35 11 19 1011.1 - 0.0
21/04:30pm 33.7 30.1 10.6 24 13.8 NW 20 32 11 17 1011.3 - 0.0
21/04:00pm 34.4 31.6 12.5 26 13.5 NW 19 30 10 16 1011.5 - 0.0
21/03:30pm 33.5 31.4 13.6 30 12.4 NW 17 35 9 19 1012.0 - 0.0
21/03:00pm 33.7 31.1 14.8 32 12.0 N 22 32 12 17 1012.3 1009.9 0.0
21/02:30pm 32.2 30.3 14.3 33 11.2 NW 17 28 9 15 1013.1 - 0.0
21/02:00pm 32.3 30.1 14.9 35 11.0 NW 20 33 11 18 1013.4 - 0.0
21/01:30pm 32.7 30.3 15.3 35 11.1 NNW 22 37 12 20 1013.8 - 0.0
21/01:00pm 31.3 28.9 15.4 38 10.1 NNW 22 35 12 19 1014.3 - 0.0
21/12:30pm 31.0 28.1 16.0 40 9.6 NNW 26 37 14 20 1014.8 - 0.0
21/12:00pm 30.1 27.5 16.0 42 9.0 NNW 24 37 13 20 1015.1 1012.6 0.0
21/11:30am 29.7 28.0 16.2 44 8.6 N 20 37 11 20 1015.5 - 0.0
21/11:00am 28.4 25.9 16.1 47 7.8 N 24 39 13 21 1016.0 - 0.0
21/10:30am 27.5 24.7 16.3 50 7.1 N 26 41 14 22 1016.2 - 0.0
21/10:00am 26.5 24.1 16.4 53 6.4 N 24 33 13 18 1016.3 - 0.0
21/09:30am 25.4 23.9 16.7 58 5.5 N 20 37 11 20 1016.6 - 0.0
21/09:00am 24.2 21.2 16.8 63 4.7 N 28 37 15 20 1016.7 1014.2 0.0
21/08:30am 23.5 21.7 17.0 67 4.1 N 22 32 12 17 1016.7 - 0.0
21/08:00am 22.5 20.4 17.1 71 3.4 N 24 33 13 18 1016.4 - 0.0
21/07:30am 22.1 20.5 17.4 74 3.0 N 22 32 12 17 1016.1 - 0.0
21/07:00am 21.0 20.3 17.4 80 2.3 N 17 28 9 15 1016.0 - 0.0
21/06:30am 20.8 20.5 17.3 80 2.2 N 15 24 8 13 1015.8 - 0.0
21/06:00am 20.9 20.1 17.2 79 2.3 N 17 26 9 14 1015.5 1013.1 0.0
21/05:30am 20.9 20.1 17.2 79 2.3 N 17 28 9 15 1015.2 - 0.0
21/05:00am 21.3 20.2 17.3 78 2.5 N 19 32 10 17 1015.0 - 0.0
21/04:30am 21.3 20.2 17.3 78 2.5 N 19 26 10 14 1014.8 - 0.0
21/04:00am 21.4 21.1 17.3 77 2.6 N 15 24 8 13 1015.0 - 0.0
21/03:30am 21.7 20.4 17.3 76 2.8 N 20 32 11 17 1014.8 - 0.0
21/03:00am 22.1 20.4 17.2 74 3.1 N 22 35 12 19 1014.9 1012.4 0.0
21/02:30am 22.5 20.6 16.8 70 3.6 N 22 33 12 18 1015.0 - 0.0
21/02:00am 22.9 20.6 16.7 68 3.9 N 24 41 13 22 1015.0 - 0.0
21/01:30am 23.5 21.4 16.1 63 4.6 N 22 37 12 20 1015.1 - 0.0
21/01:00am 24.0 22.1 15.8 60 5.1 N 20 32 11 17 1015.3 - 0.0
21/12:30am 24.1 22.4 14.8 56 5.7 N 17 24 9 13 1015.1 - 0.0
21/12:00am 25.1 21.9 14.3 51 6.6 N 24 33 13 18 1015.1 1012.7 0.0
 
Date/Time
EDT
Temp
°C
App
Temp
°C
Dew
Point
Rel
Hum
%
Delta-T
°C
Wind Press
QNH
hPa
Press
MSL
hPa
Rain
since 9 am
mm
Dir
 
Spd
km/h
Gust
km/h
Spd
kts
Gust
kts
20/11:30pm 25.6 22.7 13.9 48 7.1 N 22 33 12 18 1015.3 - 0.0
20/11:00pm 26.1 22.8 14.0 47 7.4 N 24 37 13 20 1015.2 - 0.0
20/10:30pm 26.6 23.2 12.5 41 8.4 N 22 35 12 19 1015.0 - 0.0
20/10:00pm 26.7 24.8 10.6 36 9.3 NNW 11 13 6 7 1014.8 - 0.0
20/09:30pm 26.8 25.0 10.8 36 9.3 NNW 11 15 6 8 1014.6 - 0.0
20/09:00pm 27.3 25.3 10.3 34 9.8 NNW 11 15 6 8 1014.3 1011.8 0.0
20/08:30pm 27.4 25.0 8.8 31 10.5 NW 11 13 6 7 1014.1 - 0.0
20/08:00pm 27.2 25.3 9.2 32 10.2 NW 9 11 5 6 1013.6 - 0.0
20/07:30pm 28.8 26.8 10.2 31 10.8 N 11 15 6 8 1013.3 - 0.0
20/07:00pm 30.0 27.2 8.6 26 12.2 N 13 19 7 10 1012.9 - 0.0
20/06:30pm 30.8 27.4 7.5 23 13.1 N 15 22 8 12 1012.6 - 0.0
20/06:00pm 31.3 27.4 7.2 22 13.5 NNW 17 26 9 14 1012.5 1009.9 0.0
20/05:30pm 31.6 28.2 7.5 22 13.6 N 15 22 8 12 1012.6 - 0.0
20/05:00pm 32.1 28.9 8.3 23 13.6 N 15 20 8 11 1012.8 - 0.0
20/04:30pm 32.4 28.1 8.0 22 13.9 NNW 20 32 11 17 1013.0 - 0.0
20/04:00pm 31.6 27.4 7.4 22 13.6 NNW 19 28 10 15 1013.3 - 0.0
20/03:30pm 31.0 27.5 7.2 22 13.3 NNW 15 20 8 11 1013.6 - 0.0
20/03:00pm 31.7 27.4 7.0 21 13.8 NNW 19 30 10 16 1014.1 1011.5 0.0
20/02:30pm 32.5 29.5 7.6 21 14.1 NW 13 22 7 12 1014.6 - 0.0
20/02:00pm 30.2 27.3 9.6 27 11.9 N 15 35 8 19 1015.0 - 0.0
20/01:30pm 30.2 27.1 10.4 29 11.6 N 17 28 9 15 1015.6 - 0.0
20/01:00pm 30.3 27.6 10.5 29 11.6 N 15 28 8 15 1016.0 - 0.0
20/12:30pm 31.4 29.3 11.3 29 12.0 N 13 26 7 14 1016.3 - 0.0
20/12:00pm 30.0 27.4 12.0 33 10.8 N 17 26 9 14 1016.9 1014.6 0.0

Other Formats:

Comma delimited format used in spreadsheet applications
http://www.bom.gov.au/fwo/IDN60801/IDN60801.94541.axf

JavaScript Object Notation format (JSON) in row-major order
http://www.bom.gov.au/fwo/IDN60801/IDN60801.94541.json